Time;durP1;ratioP1;P1;durP2;ratioP2;P2;SDS_P1;SDS_P2;PMS_P1;PMS_P2;Temp;Humidity;BMP_temperature;BMP_pressure;BME280_temperature;BME280_humidity;BME280_pressure;Samples;Min_cycle;Max_cycle;Signal;HPM_P1;HPM_P2
2021/09/19 00:00:15;;;;;;;10.60;9.68;;;;;;;20.48;71.51;100462.94;5005872;28;102351;-48
2021/09/19 00:02:42;;;;;;;10.40;9.50;;;;;;;20.48;71.60;100451.88;5008885;28;103835;-48
2021/09/19 00:05:10;;;;;;;10.32;9.43;;;;;;;20.47;71.50;100462.13;4996948;28;102318;-48
2021/09/19 00:07:37;;;;;;;10.90;9.90;;;;;;;20.47;71.53;100458.56;5003674;28;102301;-48
2021/09/19 00:10:09;;;;;;;9.85;9.05;;;;;;;20.47;71.55;100464.09;5008750;28;102316;-48
2021/09/19 00:12:37;;;;;;;10.90;10.00;;;;;;;20.48;71.52;100468.47;5005076;28;103829;-48
2021/09/19 00:15:08;;;;;;;10.02;9.23;;;;;;;20.47;71.61;100458.56;4998570;28;102282;-48
2021/09/19 00:17:38;;;;;;;9.65;8.75;;;;;;;20.47;71.17;100455.78;4996223;28;102387;-49
2021/09/19 00:20:06;;;;;;;10.23;9.18;;;;;;;20.46;71.69;100454.19;5009992;28;102289;-48
2021/09/19 00:22:34;;;;;;;9.82;9.02;;;;;;;20.47;71.58;100461.31;5002105;28;103915;-48
2021/09/19 00:25:02;;;;;;;10.13;9.23;;;;;;;20.47;71.39;100450.25;4995833;28;102109;-48
2021/09/19 00:27:30;;;;;;;10.30;9.40;;;;;;;20.46;71.54;100448.66;5008004;28;102547;-48
2021/09/19 00:29:57;;;;;;;10.10;9.20;;;;;;;20.46;71.77;100445.91;5009460;28;102461;-48
2021/09/19 00:32:25;;;;;;;11.15;10.15;;;;;;;20.45;71.56;100450.63;4995617;28;103914;-48
2021/09/19 00:34:52;;;;;;;10.45;9.63;;;;;;;20.45;71.55;100456.16;5002744;28;102282;-48
2021/09/19 00:37:19;;;;;;;10.35;9.38;;;;;;;20.46;71.65;100454.19;4997253;28;103402;-48
2021/09/19 00:39:45;;;;;;;10.05;9.15;;;;;;;20.46;71.54;100451.44;5002246;28;102462;-48
2021/09/19 00:42:13;;;;;;;11.13;9.98;;;;;;;20.46;71.49;100459.72;5004273;28;103930;-48
2021/09/19 00:44:40;;;;;;;10.07;9.27;;;;;;;20.45;71.52;100458.09;5003464;28;102129;-48
2021/09/19 00:47:07;;;;;;;10.10;9.20;;;;;;;20.45;71.54;100452.56;4990134;28;102278;-50
2021/09/19 00:49:55;;;;;;;10.90;10.00;;;;;;;20.45;71.59;100458.09;5004240;28;102298;-49
2021/09/19 00:52:21;;;;;;;10.90;9.90;;;;;;;20.44;71.41;100462.81;5008378;28;104132;-48
2021/09/19 00:54:49;;;;;;;10.68;9.77;;;;;;;20.45;71.48;100463.59;5007270;28;102527;-48
2021/09/19 00:57:17;;;;;;;9.93;9.13;;;;;;;20.45;71.55;100463.59;5008057;28;102556;-49
2021/09/19 00:59:49;;;;;;;10.43;9.52;;;;;;;20.45;71.51;100463.59;5005597;28;103141;-48
2021/09/19 01:02:16;;;;;;;10.05;9.25;;;;;;;20.45;71.46;100467.22;4999213;28;103791;-50
2021/09/19 01:04:44;;;;;;;10.68;9.75;;;;;;;20.45;71.41;100460.84;5004972;28;102288;-48
2021/09/19 01:07:13;;;;;;;10.38;9.57;;;;;;;20.43;71.49;100458.44;4999927;28;102230;-48
2021/09/19 01:09:40;;;;;;;10.70;9.80;;;;;;;20.44;71.38;100462.00;5004135;28;103149;-48
2021/09/19 01:12:12;;;;;;;11.32;10.32;;;;;;;20.44;71.36;100468.34;5000831;28;104054;-49
2021/09/19 01:14:41;;;;;;;10.98;10.07;;;;;;;20.44;71.36;100468.34;4995183;28;102466;-48
2021/09/19 01:17:13;;;;;;;9.27;8.57;;;;;;;20.43;71.39;100468.69;5002676;28;102905;-48
2021/09/19 01:19:41;;;;;;;10.02;9.23;;;;;;;20.43;71.26;100472.25;5010125;28;102592;-48
2021/09/19 01:22:09;;;;;;;9.90;9.13;;;;;;;20.44;71.49;100470.31;4997648;28;103904;-48
2021/09/19 01:24:37;;;;;;;10.38;9.48;;;;;;;20.43;71.54;100472.25;4991829;28;102638;-48
2021/09/19 01:27:04;;;;;;;9.88;8.88;;;;;;;20.43;71.43;100477.00;4995482;27;102401;-48
2021/09/19 01:29:32;;;;;;;10.55;9.68;;;;;;;20.44;71.52;100478.59;5005241;28;102212;-48
2021/09/19 01:31:59;;;;;;;10.00;9.13;;;;;;;20.43;71.43;100488.03;5000160;28;103894;-48
2021/09/19 01:34:26;;;;;;;9.45;8.70;;;;;;;20.42;71.50;100484.47;5003604;28;102388;-49
2021/09/19 01:36:52;;;;;;;9.80;9.00;;;;;;;20.43;71.28;100488.84;5007941;28;102596;-48
2021/09/19 01:39:19;;;;;;;9.95;9.05;;;;;;;20.43;71.63;100479.75;5010436;28;102459;-48
2021/09/19 01:41:48;;;;;;;10.77;9.05;;;;;;;20.43;71.37;100485.28;4995786;28;104184;-48
2021/09/19 01:44:16;;;;;;;9.88;9.00;;;;;;;20.42;71.33;100494.72;4998701;28;102406;-48
2021/09/19 01:46:43;;;;;;;10.15;9.23;;;;;;;20.43;71.42;100488.03;5001491;28;102758;-48
2021/09/19 01:49:10;;;;;;;10.27;9.38;;;;;;;20.42;71.53;100487.25;5009851;28;102165;-49
2021/09/19 01:51:40;;;;;;;9.68;8.85;;;;;;;20.42;71.31;100486.44;4993513;28;104070;-49
2021/09/19 01:54:07;;;;;;;10.65;9.68;;;;;;;20.43;71.44;100490.81;5009196;28;102411;-48
2021/09/19 01:56:35;;;;;;;10.25;9.38;;;;;;;20.42;71.37;100500.25;4999910;28;102066;-48
2021/09/19 01:59:02;;;;;;;9.70;8.93;;;;;;;20.41;71.38;100499.41;4991917;28;102772;-48
2021/09/19 02:01:31;;;;;;;9.65;8.85;;;;;;;20.42;71.43;100500.25;4999142;28;103937;-49
2021/09/19 02:04:02;;;;;;;9.15;8.35;;;;;;;20.40;71.45;100501.38;5004208;28;102530;-48
2021/09/19 02:06:29;;;;;;;9.77;8.90;;;;;;;20.41;71.32;100502.19;5004798;28;102406;-48
2021/09/19 02:08:57;;;;;;;9.25;8.45;;;;;;;20.40;71.43;100498.63;5007532;28;102582;-48
2021/09/19 02:11:27;;;;;;;9.52;8.30;;;;;;;20.41;71.52;100504.94;4988752;27;103928;-48
2021/09/19 02:13:54;;;;;;;9.68;8.88;;;;;;;20.40;71.30;100500.59;5010562;28;102018;-48
2021/09/19 02:16:22;;;;;;;9.68;8.85;;;;;;;20.39;71.51;100483.19;5006300;28;102562;-48
2021/09/19 02:18:59;;;;;;;9.73;8.93;;;;;;;20.40;71.41;100482.03;5005178;28;102503;-49
2021/09/19 02:21:33;;;;;;;9.73;8.93;;;;;;;20.40;71.44;100484.81;5007035;27;104019;-48
2021/09/19 02:23:59;;;;;;;9.50;8.68;;;;;;;20.39;71.40;100487.91;5007805;28;102672;-49
2021/09/19 02:26:26;;;;;;;9.95;9.15;;;;;;;20.39;71.32;100508.06;5008121;28;102614;-49
2021/09/19 02:28:57;;;;;;;10.20;9.30;;;;;;;20.39;71.34;100499.78;5000531;28;102197;-48
2021/09/19 02:31:26;;;;;;;9.30;8.50;;;;;;;20.39;71.44;100497.00;4994187;28;104131;-49
2021/09/19 02:33:53;;;;;;;9.63;8.63;;;;;;;20.38;71.49;100492.66;5002234;27;102122;-49
2021/09/19 02:36:19;;;;;;;9.50;8.70;;;;;;;20.38;71.39;100498.16;5006035;28;102148;-48
2021/09/19 02:38:46;;;;;;;9.55;8.75;;;;;;;20.39;71.52;100505.31;5004400;28;103049;-48
2021/09/19 02:41:12;;;;;;;9.88;8.98;;;;;;;20.38;71.14;100498.16;5006342;28;103908;-48
2021/09/19 02:43:39;;;;;;;9.35;8.55;;;;;;;20.38;71.23;100484.34;5007010;28;102810;-48
2021/09/19 02:46:07;;;;;;;9.57;8.77;;;;;;;20.38;71.43;100489.88;5003315;28;102531;-48
2021/09/19 02:48:37;;;;;;;9.77;8.98;;;;;;;20.37;71.35;100474.44;4995529;28;102536;-48
2021/09/19 02:51:03;;;;;;;8.90;8.18;;;;;;;20.39;71.44;100479.63;5008121;27;103925;-48
2021/09/19 02:53:30;;;;;;;9.57;8.77;;;;;;;20.38;71.17;100484.34;5004004;28;102279;-48
2021/09/19 02:55:57;;;;;;;9.77;8.95;;;;;;;20.38;71.25;100481.59;5004385;28;102587;-51
2021/09/19 02:58:23;;;;;;;10.00;9.10;;;;;;;20.37;71.26;100485.47;5012087;28;102196;-48
2021/09/19 03:00:56;;;;;;;9.50;8.70;;;;;;;20.38;71.18;100483.56;4998086;28;103970;-48
2021/09/19 03:03:23;;;;;;;9.77;8.98;;;;;;;20.37;71.30;100485.47;5003093;28;102206;-48
2021/09/19 03:05:51;;;;;;;9.95;9.05;;;;;;;20.36;71.21;100478.34;5009873;28;103200;-48
2021/09/19 03:08:17;;;;;;;9.37;8.57;;;;;;;20.36;71.37;100478.34;5006779;28;102743;-48
2021/09/19 03:10:53;;;;;;;10.05;9.20;;;;;;;20.36;71.26;100478.34;4997176;28;103890;-48
2021/09/19 03:13:20;;;;;;;8.90;8.10;;;;;;;20.37;71.41;100487.44;5000667;28;102760;-48
2021/09/19 03:15:46;;;;;;;9.32;8.52;;;;;;;20.37;71.28;100479.94;5003658;28;102184;-48
2021/09/19 03:18:13;;;;;;;10.30;9.40;;;;;;;20.36;71.33;100483.88;5009611;27;102339;-48
2021/09/19 03:20:40;;;;;;;9.40;8.60;;;;;;;20.36;71.19;100483.88;4999173;27;103851;-48
2021/09/19 03:23:08;;;;;;;9.15;8.38;;;;;;;20.36;71.21;100494.94;4993988;28;102679;-50
2021/09/19 03:25:35;;;;;;;9.02;8.23;;;;;;;20.36;71.32;100483.88;5012463;28;102242;-48
2021/09/19 03:28:03;;;;;;;10.38;9.48;;;;;;;20.36;71.36;100489.41;4999111;28;102683;-48
2021/09/19 03:30:29;;;;;;;9.90;8.98;;;;;;;20.34;71.20;100494.47;5003996;28;103896;-48
2021/09/19 03:33:00;;;;;;;10.18;9.18;;;;;;;20.35;71.16;100493.31;5008565;28;102144;-48
2021/09/19 03:35:26;;;;;;;9.90;9.00;;;;;;;20.35;71.30;100493.31;5006862;28;102157;-49
2021/09/19 03:37:53;;;;;;;10.50;9.50;;;;;;;20.34;71.22;100491.72;5013327;27;102159;-48
2021/09/19 03:40:21;;;;;;;10.20;9.30;;;;;;;20.36;71.37;100500.47;5002785;28;104080;-48
2021/09/19 03:42:51;;;;;;;10.65;9.75;;;;;;;20.36;71.28;100499.66;5009215;28;102614;-48
2021/09/19 03:45:19;;;;;;;10.15;9.35;;;;;;;20.35;71.11;100496.09;4997180;28;102771;-50
2021/09/19 03:47:46;;;;;;;10.38;9.48;;;;;;;20.35;71.33;100504.38;5004443;28;102334;-49
2021/09/19 03:50:13;;;;;;;11.07;10.07;;;;;;;20.35;71.37;100498.84;4995931;28;103970;-48
2021/09/19 03:52:41;;;;;;;11.05;10.05;;;;;;;20.34;71.31;100502.78;5008787;28;102041;-48
2021/09/19 03:55:09;;;;;;;11.23;10.23;;;;;;;20.34;71.11;100505.53;5000207;28;102942;-48
2021/09/19 03:57:36;;;;;;;10.27;9.27;;;;;;;20.34;71.24;100502.78;5000972;28;102233;-48
2021/09/19 04:00:06;;;;;;;10.25;9.35;;;;;;;20.36;71.17;100499.66;5008727;28;104136;-48
2021/09/19 04:02:32;;;;;;;10.55;9.55;;;;;;;20.34;71.25;100497.25;5007452;28;102365;-48
2021/09/19 04:04:59;;;;;;;10.48;9.57;;;;;;;20.35;71.18;100498.06;5008566;28;102561;-49
2021/09/19 04:07:25;;;;;;;10.80;9.82;;;;;;;20.34;71.11;100488.97;5007486;28;102219;-49
2021/09/19 04:09:55;;;;;;;10.13;9.23;;;;;;;20.34;71.24;100479.84;5007553;28;104195;-48
2021/09/19 04:12:24;;;;;;;10.82;9.93;;;;;;;20.35;71.20;100498.06;4994250;28;102698;-48
2021/09/19 04:15:06;;;;;;;10.18;9.27;;;;;;;20.34;71.38;100500.00;4996070;28;102226;-48
2021/09/19 04:17:34;;;;;;;10.80;9.90;;;;;;;20.34;71.27;100505.53;5009753;28;102352;-48
2021/09/19 04:20:01;;;;;;;9.88;9.07;;;;;;;20.34;71.42;100508.31;5006422;28;103956;-48
2021/09/19 04:22:28;;;;;;;10.35;9.48;;;;;;;20.34;71.33;100507.47;5011411;28;102557;-48
2021/09/19 04:24:55;;;;;;;10.23;9.35;;;;;;;20.33;71.35;100517.72;5011781;28;102136;-48
2021/09/19 04:27:21;;;;;;;10.75;9.85;;;;;;;20.34;71.20;100516.59;5005548;28;102604;-48
2021/09/19 04:29:48;;;;;;;10.80;9.80;;;;;;;20.33;71.15;100523.25;5007987;28;103660;-48
2021/09/19 04:32:21;;;;;;;10.82;9.90;;;;;;;20.34;71.32;100530.41;5003752;28;102590;-48
2021/09/19 04:34:47;;;;;;;11.23;10.23;;;;;;;20.33;71.15;100523.25;5025668;27;102314;-48
2021/09/19 04:37:16;;;;;;;12.20;11.10;;;;;;;20.35;71.18;100525.69;4997922;28;102541;-48
2021/09/19 04:39:42;;;;;;;;;;;;;;;20.33;71.43;100520.50;5009885;28;104057;-48
2021/09/19 04:42:09;;;;;;;11.70;10.57;;;;;;;20.34;71.37;100522.13;5006964;28;102593;-48
2021/09/19 04:44:36;;;;;;;11.32;10.32;;;;;;;20.32;71.33;100516.13;4998988;28;102774;-48
2021/09/19 04:47:03;;;;;;;11.88;10.88;;;;;;;20.33;71.12;100527.97;5008804;28;102153;-49
2021/09/19 04:49:31;;;;;;;11.27;10.27;;;;;;;20.33;71.33;100528.78;5008279;28;104038;-48
2021/09/19 04:51:58;;;;;;;10.93;9.93;;;;;;;20.32;71.11;100538.22;5006734;28;103169;-48
2021/09/19 04:54:25;;;;;;;9.50;8.70;;;;;;;20.33;71.22;100539.84;5008839;28;102186;-48
2021/09/19 04:56:52;;;;;;;10.20;9.30;;;;;;;20.33;71.24;100545.34;5003921;28;102503;-48
2021/09/19 04:59:19;;;;;;;9.60;8.80;;;;;;;20.33;71.17;100539.84;4999741;28;103905;-49
2021/09/19 05:01:45;;;;;;;10.50;9.70;;;;;;;20.34;71.40;100541.47;4998265;28;102635;-48
2021/09/19 05:04:14;;;;;;;10.52;9.63;;;;;;;20.34;71.14;100548.94;5007431;27;102200;-48
2021/09/19 05:06:42;;;;;;;10.82;9.82;;;;;;;20.33;71.22;100550.88;5009890;27;102404;-48
2021/09/19 05:09:08;;;;;;;10.30;9.40;;;;;;;20.34;71.32;100552.53;5008280;27;104062;-48
2021/09/19 05:11:36;;;;;;;10.35;9.43;;;;;;;20.33;71.24;100550.88;4996874;28;102213;-48
2021/09/19 05:14:02;;;;;;;10.70;9.80;;;;;;;20.33;71.20;100556.41;4998767;28;102600;-48
2021/09/19 05:16:35;;;;;;;10.98;10.00;;;;;;;20.33;71.29;100552.84;5005398;28;102227;-49
2021/09/19 05:19:21;;;;;;;10.50;9.60;;;;;;;20.33;71.20;100548.13;5008239;28;104919;-49
2021/09/19 05:21:54;;;;;;;10.80;9.80;;;;;;;20.34;71.10;100554.44;5005348;28;102435;-48
2021/09/19 05:24:21;;;;;;;10.25;9.38;;;;;;;20.33;71.30;100550.88;5002086;28;102544;-48
2021/09/19 05:26:48;;;;;;;11.35;10.35;;;;;;;20.34;71.12;100543.41;4994592;28;102530;-48
2021/09/19 05:29:16;;;;;;;11.00;10.00;;;;;;;20.34;71.12;100543.41;4999054;27;103998;-48
2021/09/19 05:31:42;;;;;;;10.93;10.02;;;;;;;20.34;71.30;100551.69;4998346;28;102235;-48
2021/09/19 05:34:09;;;;;;;11.02;10.02;;;;;;;20.34;71.11;100552.53;4996140;28;102213;-48
2021/09/19 05:36:35;;;;;;;10.68;9.77;;;;;;;20.34;71.11;100552.53;5013793;27;102584;-49
2021/09/19 05:39:03;;;;;;;10.27;9.38;;;;;;;20.34;71.40;100557.22;5005684;27;103714;-48
2021/09/19 05:41:31;;;;;;;10.05;9.25;;;;;;;20.34;71.13;100569.09;5006420;28;102418;-50
2021/09/19 05:44:00;;;;;;;10.55;9.65;;;;;;;20.35;71.21;100564.38;5008562;28;102107;-48
2021/09/19 05:46:26;;;;;;;9.82;9.02;;;;;;;20.34;71.20;100563.56;5002509;28;102314;-48
2021/09/19 05:48:53;;;;;;;9.18;8.38;;;;;;;20.34;71.32;100555.28;5003225;28;103872;-48
2021/09/19 05:51:22;;;;;;;9.80;9.00;;;;;;;20.34;71.17;100551.69;5007722;28;102587;-48
2021/09/19 05:53:49;;;;;;;9.88;8.98;;;;;;;20.34;71.25;100552.53;5003933;27;102571;-48
2021/09/19 05:56:18;;;;;;;10.38;9.43;;;;;;;20.35;71.18;100545.03;5010984;28;102847;-48
2021/09/19 05:58:51;;;;;;;10.38;9.48;;;;;;;20.34;71.27;100541.47;5006319;28;104112;-48
2021/09/19 06:01:20;;;;;;;10.02;9.18;;;;;;;20.35;71.25;100536.75;5007053;28;102298;-48
2021/09/19 06:03:47;;;;;;;10.32;9.43;;;;;;;20.34;71.18;100535.94;5009006;27;102466;-49
2021/09/19 06:06:13;;;;;;;10.07;9.27;;;;;;;20.34;71.06;100524.88;5009572;28;102432;-48
2021/09/19 06:08:40;;;;;;;10.52;9.43;;;;;;;20.35;71.23;100539.50;5004997;28;104084;-49
2021/09/19 06:11:10;;;;;;;10.65;9.75;;;;;;;20.36;71.03;100539.16;5005787;28;102568;-48
2021/09/19 06:13:43;;;;;;;10.82;9.93;;;;;;;20.36;71.19;100539.16;4993360;28;102094;-48
2021/09/19 06:16:11;;;;;;;10.45;9.55;;;;;;;20.37;71.05;100534.44;4996652;28;102251;-49
2021/09/19 06:18:38;;;;;;;10.68;9.77;;;;;;;20.37;71.27;100543.53;5010064;27;105086;-48
2021/09/19 06:21:04;;;;;;;10.65;9.70;;;;;;;20.37;71.14;100540.75;5004574;28;102262;-48
2021/09/19 06:23:31;;;;;;;11.77;10.68;;;;;;;20.38;70.90;100547.91;5009058;28;102892;-48
2021/09/19 06:25:57;;;;;;;9.90;9.10;;;;;;;20.38;71.53;100542.41;5006066;28;102954;-48
2021/09/19 06:28:25;;;;;;;10.60;9.70;;;;;;;20.38;71.06;100542.41;5007248;28;103868;-48
2021/09/19 06:30:53;;;;;;;11.23;10.23;;;;;;;20.39;71.01;100544.00;5012731;28;102593;-48
2021/09/19 06:33:19;;;;;;;10.60;9.70;;;;;;;20.40;71.16;100544.81;5010831;28;102535;-48
2021/09/19 06:35:47;;;;;;;10.32;9.43;;;;;;;20.40;71.11;100545.59;5001817;28;102584;-48
2021/09/19 06:38:13;;;;;;;10.82;9.82;;;;;;;20.40;70.94;100551.13;5002106;28;103908;-49
2021/09/19 06:40:40;;;;;;;10.50;9.50;;;;;;;20.42;71.27;100541.72;5010526;28;102831;-48
2021/09/19 06:43:08;;;;;;;9.57;8.77;;;;;;;20.42;71.05;100541.72;5011752;28;102813;-49
2021/09/19 06:45:35;;;;;;;9.80;8.90;;;;;;;20.42;71.08;100537.00;5000980;28;102836;-49
2021/09/19 06:48:04;;;;;;;10.15;9.18;;;;;;;20.44;71.12;100539.41;4991316;28;105443;-49
2021/09/19 06:50:30;;;;;;;8.75;7.97;;;;;;;20.44;70.83;100531.09;5003442;28;102569;-48
2021/09/19 06:52:58;;;;;;;9.55;8.75;;;;;;;20.45;70.96;100541.00;5008914;28;102558;-48
2021/09/19 06:55:24;;;;;;;9.60;8.75;;;;;;;20.46;70.88;100540.69;5008108;28;102644;-49
2021/09/19 06:57:54;;;;;;;9.50;8.60;;;;;;;20.47;71.12;100538.72;5001511;28;103868;-49
2021/09/19 07:00:21;;;;;;;8.93;8.13;;;;;;;20.48;70.52;100540.31;5000288;27;102268;-48
2021/09/19 07:02:48;;;;;;;9.05;8.32;;;;;;;20.48;70.87;100537.56;5012477;28;102099;-48
2021/09/19 07:05:16;;;;;;;9.05;8.25;;;;;;;20.49;70.82;100536.44;5002662;28;102271;-49
2021/09/19 07:07:43;;;;;;;8.82;8.10;;;;;;;20.50;70.76;100538.06;4993810;28;103687;-48
2021/09/19 07:10:15;;;;;;;8.57;7.88;;;;;;;20.50;70.85;100527.81;5001463;28;102242;-48
2021/09/19 07:12:42;;;;;;;8.70;8.00;;;;;;;20.51;70.76;100534.94;5000348;28;102653;-48
2021/09/19 07:15:11;;;;;;;7.70;7.10;;;;;;;20.51;70.94;100534.16;5012430;28;102014;-48
2021/09/19 07:17:38;;;;;;;8.30;7.60;;;;;;;20.53;71.03;100542.91;5008851;28;104179;-48
2021/09/19 07:20:06;;;;;;;;;;;;;;;20.54;71.06;100539.00;4998850;28;102234;-48
2021/09/19 07:22:36;;;;;;;7.50;6.90;;;;;;;20.55;70.67;100535.06;5012293;28;102299;-48
2021/09/19 07:25:03;;;;;;;7.18;6.68;;;;;;;20.55;70.86;100541.41;4997483;28;102362;-48
2021/09/19 07:27:31;;;;;;;8.05;7.30;;;;;;;20.57;70.75;100535.56;4995925;28;104120;-48
2021/09/19 07:29:58;;;;;;;6.80;6.20;;;;;;;20.57;70.55;100538.31;5001740;28;102812;-48
2021/09/19 07:32:25;;;;;;;7.20;6.60;;;;;;;20.58;70.53;100537.16;5005321;28;102459;-48
2021/09/19 07:34:51;;;;;;;7.20;6.60;;;;;;;20.59;70.55;100536.00;5010972;28;102164;-48
2021/09/19 07:37:20;;;;;;;7.10;6.50;;;;;;;20.61;70.62;100536.47;5006491;28;104052;-48
2021/09/19 07:39:48;;;;;;;6.17;5.67;;;;;;;20.61;70.70;100539.25;5000070;28;102322;-49
2021/09/19 07:42:15;;;;;;;6.47;5.97;;;;;;;20.62;70.66;100541.66;5000027;28;102734;-48
2021/09/19 07:44:43;;;;;;;6.53;5.97;;;;;;;20.62;70.78;100536.13;5004397;28;102223;-48
2021/09/19 07:47:10;;;;;;;6.82;6.32;;;;;;;20.63;70.67;100542.47;5003694;28;102718;-48
2021/09/19 07:49:39;;;;;;;6.30;5.70;;;;;;;20.65;70.73;100540.16;5007877;27;102444;-48
2021/09/19 07:52:08;;;;;;;6.55;6.05;;;;;;;20.66;70.65;100536.25;4995116;28;102182;-49
2021/09/19 07:54:36;;;;;;;7.43;6.82;;;;;;;20.66;70.68;100539.00;5006679;28;102495;-49
2021/09/19 07:57:04;;;;;;;6.50;6.00;;;;;;;20.68;70.61;100536.72;5003733;28;103758;-49
2021/09/19 07:59:30;;;;;;;6.40;5.90;;;;;;;20.68;70.58;100539.47;5005374;28;102583;-48
2021/09/19 08:02:01;;;;;;;6.68;6.15;;;;;;;20.70;70.45;100537.19;5000992;28;102194;-49
2021/09/19 08:04:28;;;;;;;6.07;5.60;;;;;;;20.70;70.60;100528.06;5010034;28;102717;-49
2021/09/19 08:06:54;;;;;;;6.90;6.15;;;;;;;20.70;70.44;100526.13;5009068;27;103697;-48
2021/09/19 08:09:21;;;;;;;7.15;6.55;;;;;;;20.71;70.56;100515.88;5004274;28;102493;-48
2021/09/19 08:11:48;;;;;;;6.75;6.18;;;;;;;20.73;70.47;100519.09;5008579;28;102742;-48
2021/09/19 08:14:16;;;;;;;6.28;5.78;;;;;;;20.73;70.42;100517.13;5000693;28;102156;-47
2021/09/19 08:16:42;;;;;;;7.10;6.40;;;;;;;20.75;70.61;100516.78;4993559;28;104069;-48
2021/09/19 08:19:09;;;;;;;6.63;6.03;;;;;;;20.74;70.53;100518.75;5012970;27;102043;-48
2021/09/19 08:21:37;;;;;;;6.43;5.93;;;;;;;20.75;70.57;100519.56;5004066;28;103203;-48
2021/09/19 08:24:05;;;;;;;5.83;5.43;;;;;;;20.76;70.45;100513.66;5005598;28;102350;-48
2021/09/19 08:26:34;;;;;;;6.63;6.03;;;;;;;20.77;70.48;100508.94;5004591;28;104137;-48
2021/09/19 08:29:02;;;;;;;5.93;5.53;;;;;;;20.78;70.68;100502.28;5000595;28;102525;-48
2021/09/19 08:31:31;;;;;;;6.95;5.80;;;;;;;20.78;70.42;100494.78;5006720;27;102414;-48
2021/09/19 08:33:58;;;;;;;5.85;5.35;;;;;;;20.78;70.52;100494.78;5008754;28;102465;-49
2021/09/19 08:36:38;;;;;;;6.53;6.03;;;;;;;20.80;70.56;100486.13;5040363;27;102152;-49
2021/09/19 08:39:07;;;;;;;6.03;5.57;;;;;;;20.79;70.57;100493.63;5045258;27;103726;-48
2021/09/19 08:41:50;;;;;;;6.10;5.60;;;;;;;20.81;70.39;100488.56;5036171;27;102357;-48
2021/09/19 08:44:33;;;;;;;5.57;5.18;;;;;;;20.81;70.54;100480.28;5077020;27;102075;-48
2021/09/19 08:47:15;;;;;;;6.07;5.57;;;;;;;20.82;70.68;100487.41;5032699;27;102754;-48
2021/09/19 08:49:56;;;;;;;6.00;5.50;;;;;;;20.83;70.54;100480.72;5071055;27;102159;-49
2021/09/19 08:52:38;;;;;;;5.20;4.80;;;;;;;20.84;70.56;100476.81;5026397;27;102315;-48
2021/09/19 08:55:19;;;;;;;5.75;5.25;;;;;;;20.83;70.53;100480.72;5020681;27;102323;-49
2021/09/19 08:57:46;;;;;;;5.43;5.03;;;;;;;20.84;70.50;100476.81;4991946;28;102454;-49
2021/09/19 09:00:16;;;;;;;5.78;5.28;;;;;;;20.84;70.36;100474.03;4978741;28;104067;-48
2021/09/19 09:02:48;;;;;;;5.38;4.97;;;;;;;20.85;70.59;100477.63;5022109;22;102043;-50
2021/09/19 09:05:20;;;;;;;5.15;4.75;;;;;;;20.85;70.39;100481.19;5005854;28;102780;-49
2021/09/19 09:07:50;;;;;;;5.40;5.00;;;;;;;20.85;70.55;100475.66;5010375;27;102423;-54
2021/09/19 09:10:28;;;;;;;5.68;5.28;;;;;;;20.85;70.61;100464.59;4994391;28;103990;-49
2021/09/19 09:12:58;;;;;;;4.97;4.57;;;;;;;20.85;70.59;100467.34;5001922;28;102562;-49
2021/09/19 09:15:32;;;;;;;5.53;5.13;;;;;;;20.85;70.25;100469.31;5001457;28;102573;-48
2021/09/19 09:17:59;;;;;;;5.00;4.60;;;;;;;20.84;70.59;100465.75;4999251;28;102535;-50
2021/09/19 09:20:25;;;;;;;5.75;5.25;;;;;;;20.85;70.62;100472.88;4994145;28;104006;-53
2021/09/19 09:22:52;;;;;;;5.15;4.75;;;;;;;20.84;70.38;100465.75;5005907;28;102083;-49
2021/09/19 09:25:22;;;;;;;5.03;4.63;;;;;;;20.86;70.54;100474.50;4996830;27;102623;-50
2021/09/19 09:27:49;;;;;;;5.22;4.82;;;;;;;20.84;70.62;100462.97;5003799;27;102670;-49
2021/09/19 09:30:23;;;;;;;4.82;4.43;;;;;;;20.85;70.66;100456.28;4998415;27;104041;-48
2021/09/19 09:32:55;;;;;;;;;;;;;;;20.84;70.77;100462.97;5000523;28;102497;-49
2021/09/19 09:35:23;;;;;;;4.55;4.25;;;;;;;20.85;70.39;100458.25;5001479;28;102599;-49
2021/09/19 09:37:50;;;;;;;4.78;4.43;;;;;;;20.85;70.53;100463.78;5005185;28;102281;-48
2021/09/19 09:40:18;;;;;;;5.45;4.95;;;;;;;20.84;70.51;100459.38;5003555;28;104028;-49
2021/09/19 09:43:07;;;;;;;4.97;4.57;;;;;;;20.84;70.58;100460.22;4996830;28;102822;-50
2021/09/19 09:45:35;;;;;;;;;;;;;;;20.83;70.50;100455.81;5001943;28;102492;-48
2021/09/19 09:48:04;;;;;;;5.53;5.05;;;;;;;20.83;70.47;100453.06;4994464;28;102400;-47
2021/09/19 09:50:31;;;;;;;5.13;4.72;;;;;;;20.84;70.58;100446.38;5001775;28;103165;-48
2021/09/19 09:53:11;;;;;;;4.68;4.38;;;;;;;20.84;70.53;100448.31;5001808;28;102536;-48
2021/09/19 09:55:43;;;;;;;4.50;4.15;;;;;;;20.84;70.61;100448.31;5000698;28;102795;-48
2021/09/19 09:58:12;;;;;;;4.45;4.07;;;;;;;20.83;70.56;100444.75;5003926;28;102177;-50
2021/09/19 10:00:40;;;;;;;5.75;4.20;;;;;;;20.82;70.24;100451.44;4994413;28;102866;-48
2021/09/19 10:03:07;;;;;;;4.28;3.97;;;;;;;20.83;70.42;100442.00;5004613;28;102416;-48
2021/09/19 10:05:34;;;;;;;4.72;4.35;;;;;;;20.83;70.36;100441.19;4996328;28;102073;-49
2021/09/19 10:08:01;;;;;;;4.57;4.28;;;;;;;20.82;70.53;100440.38;4992354;28;102561;-49
2021/09/19 10:10:29;;;;;;;4.38;4.05;;;;;;;20.82;70.32;100429.31;4989390;28;102884;-50
2021/09/19 10:12:58;;;;;;;4.05;3.78;;;;;;;20.83;70.47;100449.50;4991797;28;102715;-49
2021/09/19 10:15:26;;;;;;;;;;;;;;;20.83;70.59;100442.00;4977459;28;103247;-50
2021/09/19 10:17:53;;;;;;;4.22;3.92;;;;;;;20.83;70.39;100446.72;4990479;28;102636;-50
2021/09/19 10:20:25;;;;;;;3.80;3.53;;;;;;;20.82;70.43;100450.66;4990532;28;104111;-48
2021/09/19 10:22:58;;;;;;;5.43;3.80;;;;;;;20.82;70.74;100440.38;4991108;28;102411;-49
2021/09/19 10:25:41;;;;;;;4.20;3.80;;;;;;;20.82;70.62;100442.34;4990895;28;102427;-48
2021/09/19 10:28:20;;;;;;;4.20;3.90;;;;;;;20.82;70.53;100440.38;4990751;28;102395;-49
2021/09/19 10:31:27;;;;;;;4.13;3.83;;;;;;;20.80;70.34;100437.16;4980219;28;103850;-49
2021/09/19 10:34:00;;;;;;;3.92;3.63;;;;;;;20.81;70.30;100426.91;4980645;28;102388;-50
2021/09/19 10:36:34;;;;;;;4.30;4.00;;;;;;;20.81;70.56;100422.19;4975923;28;102227;-50
2021/09/19 10:39:25;;;;;;;3.95;3.65;;;;;;;20.81;70.42;100421.38;5005418;28;102468;-49
2021/09/19 10:42:30;;;;;;;4.32;4.03;;;;;;;20.80;70.44;100420.56;4988591;28;104050;-48
2021/09/19 10:45:20;;;;;;;3.97;3.67;;;;;;;20.80;70.32;100417.78;4988377;28;102694;-49
2021/09/19 10:48:12;;;;;;;4.22;3.92;;;;;;;20.80;70.34;100415.03;4984115;28;102806;-48
2021/09/19 10:50:40;;;;;;;3.75;3.45;;;;;;;20.80;70.20;100414.22;4989823;28;102475;-50
2021/09/19 10:53:20;;;;;;;4.10;3.80;;;;;;;20.79;70.45;100410.66;4988708;28;103864;-49
2021/09/19 10:55:49;;;;;;;4.65;4.25;;;;;;;20.80;70.13;100415.03;4999803;28;102784;-49
2021/09/19 10:58:20;;;;;;;4.28;3.60;;;;;;;20.79;70.26;100407.09;4989632;28;102316;-48
2021/09/19 11:01:10;;;;;;;4.32;3.92;;;;;;;20.78;70.47;100406.28;4989186;28;102657;-48
2021/09/19 11:03:38;;;;;;;3.80;3.50;;;;;;;20.78;70.26;100411.81;4989835;28;103925;-49
2021/09/19 11:06:20;;;;;;;3.92;3.63;;;;;;;20.78;70.34;100409.06;4991677;28;102398;-49
2021/09/19 11:08:48;;;;;;;4.00;3.70;;;;;;;20.77;70.32;100410.22;4988070;28;102525;-50
2021/09/19 11:11:25;;;;;;;3.35;3.15;;;;;;;20.78;70.19;100417.34;4977077;28;102658;-49
2021/09/19 11:13:55;;;;;;;3.53;3.15;;;;;;;20.76;70.21;100408.59;4984925;28;102818;-47
2021/09/19 11:16:31;;;;;;;3.20;3.00;;;;;;;20.77;70.08;100409.38;4989488;28;102145;-51
2021/09/19 11:19:02;;;;;;;3.78;3.47;;;;;;;20.77;70.15;100410.22;4987562;28;102098;-48
2021/09/19 11:21:33;;;;;;;4.32;3.97;;;;;;;20.75;70.25;100401.44;4989485;28;102578;-50
2021/09/19 11:24:05;;;;;;;3.67;3.38;;;;;;;20.75;70.14;100395.91;4990159;28;104022;-48